sensor_id;sensor_type;location;lat;lon;timestamp;temperature;humidity
12060;DHT22;6091;51.432;6.880;2023-06-14T00:02:12;30.60;27.20
12060;DHT22;6091;51.432;6.880;2023-06-14T00:04:39;30.60;27.30
12060;DHT22;6091;51.432;6.880;2023-06-14T00:07:08;30.50;27.20
12060;DHT22;6091;51.432;6.880;2023-06-14T00:09:37;30.60;27.30
12060;DHT22;6091;51.432;6.880;2023-06-14T00:12:05;30.50;27.30
12060;DHT22;6091;51.432;6.880;2023-06-14T00:14:33;30.50;27.30
12060;DHT22;6091;51.432;6.880;2023-06-14T00:17:00;30.50;27.40
12060;DHT22;6091;51.432;6.880;2023-06-14T00:19:28;30.50;27.40
12060;DHT22;6091;51.432;6.880;2023-06-14T00:21:57;30.50;27.40
12060;DHT22;6091;51.432;6.880;2023-06-14T00:24:24;30.50;27.50
12060;DHT22;6091;51.432;6.880;2023-06-14T00:26:51;30.50;27.50
12060;DHT22;6091;51.432;6.880;2023-06-14T00:29:18;30.50;27.50
12060;DHT22;6091;51.432;6.880;2023-06-14T00:31:45;30.50;27.60
12060;DHT22;6091;51.432;6.880;2023-06-14T00:34:12;30.50;27.60
12060;DHT22;6091;51.432;6.880;2023-06-14T00:36:39;30.50;27.60
12060;DHT22;6091;51.432;6.880;2023-06-14T00:39:06;30.50;27.70
12060;DHT22;6091;51.432;6.880;2023-06-14T00:41:33;30.50;27.70
12060;DHT22;6091;51.432;6.880;2023-06-14T00:44:00;30.50;27.70
12060;DHT22;6091;51.432;6.880;2023-06-14T00:46:27;30.50;27.70
12060;DHT22;6091;51.432;6.880;2023-06-14T00:48:55;30.40;27.70
12060;DHT22;6091;51.432;6.880;2023-06-14T00:51:25;30.50;27.80
12060;DHT22;6091;51.432;6.880;2023-06-14T00:53:53;30.50;27.80
12060;DHT22;6091;51.432;6.880;2023-06-14T00:56:20;30.40;27.70
12060;DHT22;6091;51.432;6.880;2023-06-14T00:58:48;30.40;27.70
12060;DHT22;6091;51.432;6.880;2023-06-14T01:01:16;30.40;27.80
12060;DHT22;6091;51.432;6.880;2023-06-14T01:03:43;30.40;27.80
12060;DHT22;6091;51.432;6.880;2023-06-14T01:09:27;30.40;28.00
12060;DHT22;6091;51.432;6.880;2023-06-14T01:12:17;30.40;28.00
12060;DHT22;6091;51.432;6.880;2023-06-14T01:15:23;30.40;28.00
12060;DHT22;6091;51.432;6.880;2023-06-14T01:17:50;30.40;27.90
12060;DHT22;6091;51.432;6.880;2023-06-14T01:20:22;30.40;27.90
12060;DHT22;6091;51.432;6.880;2023-06-14T01:22:53;30.30;27.90
12060;DHT22;6091;51.432;6.880;2023-06-14T01:25:21;30.30;28.00
12060;DHT22;6091;51.432;6.880;2023-06-14T01:28:04;30.40;28.00
12060;DHT22;6091;51.432;6.880;2023-06-14T01:30:41;30.40;28.10
12060;DHT22;6091;51.432;6.880;2023-06-14T01:33:13;30.30;27.90
12060;DHT22;6091;51.432;6.880;2023-06-14T01:35:47;30.30;28.00
12060;DHT22;6091;51.432;6.880;2023-06-14T01:38:24;30.30;28.10
12060;DHT22;6091;51.432;6.880;2023-06-14T01:40:54;30.30;28.00
12060;DHT22;6091;51.432;6.880;2023-06-14T01:43:24;30.30;28.00
12060;DHT22;6091;51.432;6.880;2023-06-14T01:45:53;30.30;27.90
12060;DHT22;6091;51.432;6.880;2023-06-14T01:48:22;30.20;28.00
12060;DHT22;6091;51.432;6.880;2023-06-14T01:50:50;30.20;27.90
12060;DHT22;6091;51.432;6.880;2023-06-14T01:53:16;30.20;28.00
12060;DHT22;6091;51.432;6.880;2023-06-14T01:55:43;30.20;28.00
12060;DHT22;6091;51.432;6.880;2023-06-14T01:58:16;30.20;28.10
12060;DHT22;6091;51.432;6.880;2023-06-14T02:00:43;30.20;28.10
12060;DHT22;6091;51.432;6.880;2023-06-14T02:03:11;30.10;28.00
12060;DHT22;6091;51.432;6.880;2023-06-14T02:05:40;30.10;28.00
12060;DHT22;6091;51.432;6.880;2023-06-14T02:08:08;30.10;28.10
12060;DHT22;6091;51.432;6.880;2023-06-14T02:10:35;30.00;28.00
12060;DHT22;6091;51.432;6.880;2023-06-14T02:13:02;30.00;28.00
12060;DHT22;6091;51.432;6.880;2023-06-14T02:15:30;30.00;28.00
12060;DHT22;6091;51.432;6.880;2023-06-14T02:18:01;30.00;28.00
12060;DHT22;6091;51.432;6.880;2023-06-14T02:20:29;30.00;28.00
12060;DHT22;6091;51.432;6.880;2023-06-14T02:22:57;29.90;28.10
12060;DHT22;6091;51.432;6.880;2023-06-14T02:25:24;29.90;28.10
12060;DHT22;6091;51.432;6.880;2023-06-14T02:27:54;29.90;28.10
12060;DHT22;6091;51.432;6.880;2023-06-14T02:30:22;29.90;28.10
12060;DHT22;6091;51.432;6.880;2023-06-14T02:32:49;29.90;28.10
12060;DHT22;6091;51.432;6.880;2023-06-14T02:35:18;29.90;28.10
12060;DHT22;6091;51.432;6.880;2023-06-14T02:37:45;29.90;28.00
12060;DHT22;6091;51.432;6.880;2023-06-14T02:40:12;29.90;28.10
12060;DHT22;6091;51.432;6.880;2023-06-14T02:42:40;29.80;28.10
12060;DHT22;6091;51.432;6.880;2023-06-14T02:45:07;29.80;28.10
12060;DHT22;6091;51.432;6.880;2023-06-14T02:47:35;29.80;28.10
12060;DHT22;6091;51.432;6.880;2023-06-14T02:50:02;29.70;28.00
12060;DHT22;6091;51.432;6.880;2023-06-14T02:52:29;29.70;28.10
12060;DHT22;6091;51.432;6.880;2023-06-14T02:54:56;29.70;28.10
12060;DHT22;6091;51.432;6.880;2023-06-14T02:57:23;29.70;28.20
12060;DHT22;6091;51.432;6.880;2023-06-14T02:59:50;29.70;28.20
12060;DHT22;6091;51.432;6.880;2023-06-14T03:02:18;29.60;28.20
12060;DHT22;6091;51.432;6.880;2023-06-14T03:04:45;29.60;28.20
12060;DHT22;6091;51.432;6.880;2023-06-14T03:07:13;29.60;28.20
12060;DHT22;6091;51.432;6.880;2023-06-14T03:09:46;29.60;28.20
12060;DHT22;6091;51.432;6.880;2023-06-14T03:12:13;29.50;28.20
12060;DHT22;6091;51.432;6.880;2023-06-14T03:14:41;29.50;28.20
12060;DHT22;6091;51.432;6.880;2023-06-14T03:17:08;29.50;28.30
12060;DHT22;6091;51.432;6.880;2023-06-14T03:19:37;29.50;28.30
12060;DHT22;6091;51.432;6.880;2023-06-14T03:22:04;29.50;28.30
12060;DHT22;6091;51.432;6.880;2023-06-14T03:24:31;29.50;28.30
12060;DHT22;6091;51.432;6.880;2023-06-14T03:27:03;29.50;28.30
12060;DHT22;6091;51.432;6.880;2023-06-14T03:29:31;29.40;28.30
12060;DHT22;6091;51.432;6.880;2023-06-14T03:32:02;29.40;28.30
12060;DHT22;6091;51.432;6.880;2023-06-14T03:34:31;29.40;28.30
12060;DHT22;6091;51.432;6.880;2023-06-14T03:36:58;29.40;28.30
12060;DHT22;6091;51.432;6.880;2023-06-14T03:39:25;29.40;28.30
12060;DHT22;6091;51.432;6.880;2023-06-14T03:41:52;29.40;28.40
12060;DHT22;6091;51.432;6.880;2023-06-14T03:44:19;29.40;28.40
12060;DHT22;6091;51.432;6.880;2023-06-14T03:46:47;29.40;28.40
12060;DHT22;6091;51.432;6.880;2023-06-14T03:49:14;29.30;28.40
12060;DHT22;6091;51.432;6.880;2023-06-14T03:51:43;29.30;28.40
12060;DHT22;6091;51.432;6.880;2023-06-14T03:54:10;29.30;28.50
12060;DHT22;6091;51.432;6.880;2023-06-14T03:56:57;29.30;28.50
12060;DHT22;6091;51.432;6.880;2023-06-14T03:59:25;29.30;28.50
12060;DHT22;6091;51.432;6.880;2023-06-14T04:01:54;29.30;28.50
12060;DHT22;6091;51.432;6.880;2023-06-14T04:04:21;29.30;28.50
12060;DHT22;6091;51.432;6.880;2023-06-14T04:06:58;29.30;28.50
12060;DHT22;6091;51.432;6.880;2023-06-14T04:09:27;29.30;28.70
12060;DHT22;6091;51.432;6.880;2023-06-14T04:11:54;29.30;28.60
12060;DHT22;6091;51.432;6.880;2023-06-14T04:14:22;29.30;28.60
12060;DHT22;6091;51.432;6.880;2023-06-14T04:16:49;29.30;28.60
12060;DHT22;6091;51.432;6.880;2023-06-14T04:19:16;29.30;28.60
12060;DHT22;6091;51.432;6.880;2023-06-14T04:21:43;29.30;28.70
12060;DHT22;6091;51.432;6.880;2023-06-14T04:24:11;29.30;28.60
12060;DHT22;6091;51.432;6.880;2023-06-14T04:26:42;29.30;28.70
12060;DHT22;6091;51.432;6.880;2023-06-14T04:29:12;29.40;28.70
12060;DHT22;6091;51.432;6.880;2023-06-14T04:31:43;29.30;28.70
12060;DHT22;6091;51.432;6.880;2023-06-14T04:34:12;29.40;28.80
12060;DHT22;6091;51.432;6.880;2023-06-14T04:36:43;29.40;28.80
12060;DHT22;6091;51.432;6.880;2023-06-14T04:39:20;29.40;28.80
12060;DHT22;6091;51.432;6.880;2023-06-14T04:41:48;29.40;28.80
12060;DHT22;6091;51.432;6.880;2023-06-14T04:44:23;29.40;28.80
12060;DHT22;6091;51.432;6.880;2023-06-14T04:46:58;29.40;28.80
12060;DHT22;6091;51.432;6.880;2023-06-14T04:49:26;29.40;28.80
12060;DHT22;6091;51.432;6.880;2023-06-14T04:51:56;29.40;28.80
12060;DHT22;6091;51.432;6.880;2023-06-14T04:54:28;29.40;28.80
12060;DHT22;6091;51.432;6.880;2023-06-14T04:57:00;29.40;29.30
12060;DHT22;6091;51.432;6.880;2023-06-14T04:59:29;29.40;28.90
12060;DHT22;6091;51.432;6.880;2023-06-14T05:01:59;29.40;28.90
12060;DHT22;6091;51.432;6.880;2023-06-14T05:04:27;29.50;29.00
12060;DHT22;6091;51.432;6.880;2023-06-14T05:06:56;29.50;29.00
12060;DHT22;6091;51.432;6.880;2023-06-14T05:09:23;29.50;29.00
12060;DHT22;6091;51.432;6.880;2023-06-14T05:11:50;29.50;29.00
12060;DHT22;6091;51.432;6.880;2023-06-14T05:14:17;29.50;29.00
12060;DHT22;6091;51.432;6.880;2023-06-14T05:16:45;29.50;29.00
12060;DHT22;6091;51.432;6.880;2023-06-14T05:19:13;29.60;29.10
12060;DHT22;6091;51.432;6.880;2023-06-14T05:21:40;29.50;29.00
12060;DHT22;6091;51.432;6.880;2023-06-14T05:24:09;29.50;29.00
12060;DHT22;6091;51.432;6.880;2023-06-14T05:26:36;29.60;29.10
12060;DHT22;6091;51.432;6.880;2023-06-14T05:29:03;29.60;29.10
12060;DHT22;6091;51.432;6.880;2023-06-14T05:31:30;29.60;29.10
12060;DHT22;6091;51.432;6.880;2023-06-14T05:33:57;29.60;29.10
12060;DHT22;6091;51.432;6.880;2023-06-14T05:36:24;29.60;29.10
12060;DHT22;6091;51.432;6.880;2023-06-14T05:38:52;29.60;29.00
12060;DHT22;6091;51.432;6.880;2023-06-14T05:41:28;29.60;29.10
12060;DHT22;6091;51.432;6.880;2023-06-14T05:43:56;29.60;29.10
12060;DHT22;6091;51.432;6.880;2023-06-14T05:46:24;29.60;29.10
12060;DHT22;6091;51.432;6.880;2023-06-14T05:48:54;29.60;29.10
12060;DHT22;6091;51.432;6.880;2023-06-14T05:51:22;29.70;29.10
12060;DHT22;6091;51.432;6.880;2023-06-14T05:53:52;29.60;29.20
12060;DHT22;6091;51.432;6.880;2023-06-14T05:56:19;29.70;29.10
12060;DHT22;6091;51.432;6.880;2023-06-14T05:58:47;29.70;29.00
12060;DHT22;6091;51.432;6.880;2023-06-14T06:01:14;29.70;28.90
12060;DHT22;6091;51.432;6.880;2023-06-14T06:03:42;29.70;28.80
12060;DHT22;6091;51.432;6.880;2023-06-14T06:06:13;29.70;28.80
12060;DHT22;6091;51.432;6.880;2023-06-14T06:08:40;29.70;28.70
12060;DHT22;6091;51.432;6.880;2023-06-14T06:11:07;29.70;28.50
12060;DHT22;6091;51.432;6.880;2023-06-14T06:13:34;29.60;28.40
12060;DHT22;6091;51.432;6.880;2023-06-14T06:16:03;29.50;28.20
12060;DHT22;6091;51.432;6.880;2023-06-14T06:18:30;29.50;28.20
12060;DHT22;6091;51.432;6.880;2023-06-14T06:20:57;29.30;28.10
12060;DHT22;6091;51.432;6.880;2023-06-14T06:23:24;29.00;28.30
12060;DHT22;6091;51.432;6.880;2023-06-14T06:25:51;29.00;28.40
12060;DHT22;6091;51.432;6.880;2023-06-14T06:28:18;28.90;28.30
12060;DHT22;6091;51.432;6.880;2023-06-14T06:30:46;28.80;28.20
12060;DHT22;6091;51.432;6.880;2023-06-14T06:33:13;28.80;28.30
12060;DHT22;6091;51.432;6.880;2023-06-14T06:35:40;28.70;28.30
12060;DHT22;6091;51.432;6.880;2023-06-14T06:38:08;28.60;28.30
12060;DHT22;6091;51.432;6.880;2023-06-14T06:40:37;28.60;28.20
12060;DHT22;6091;51.432;6.880;2023-06-14T06:43:04;28.50;28.20
12060;DHT22;6091;51.432;6.880;2023-06-14T06:45:31;28.50;28.20
12060;DHT22;6091;51.432;6.880;2023-06-14T06:47:58;28.40;28.20
12060;DHT22;6091;51.432;6.880;2023-06-14T06:50:25;28.40;28.30
12060;DHT22;6091;51.432;6.880;2023-06-14T06:52:52;28.40;28.20
12060;DHT22;6091;51.432;6.880;2023-06-14T06:55:20;28.40;28.10
12060;DHT22;6091;51.432;6.880;2023-06-14T06:57:48;28.30;28.00
12060;DHT22;6091;51.432;6.880;2023-06-14T07:00:16;28.40;28.00
12060;DHT22;6091;51.432;6.880;2023-06-14T07:02:45;28.30;28.00
12060;DHT22;6091;51.432;6.880;2023-06-14T07:05:12;28.30;28.10
12060;DHT22;6091;51.432;6.880;2023-06-14T07:07:40;28.30;28.10
12060;DHT22;6091;51.432;6.880;2023-06-14T07:10:07;28.30;28.20
12060;DHT22;6091;51.432;6.880;2023-06-14T07:12:34;28.40;28.20
12060;DHT22;6091;51.432;6.880;2023-06-14T07:15:07;28.40;28.20
12060;DHT22;6091;51.432;6.880;2023-06-14T07:17:35;28.50;28.30
12060;DHT22;6091;51.432;6.880;2023-06-14T07:20:03;28.50;28.20
12060;DHT22;6091;51.432;6.880;2023-06-14T07:22:34;28.50;28.20
12060;DHT22;6091;51.432;6.880;2023-06-14T07:25:01;28.70;28.30
12060;DHT22;6091;51.432;6.880;2023-06-14T07:27:29;28.70;28.30
12060;DHT22;6091;51.432;6.880;2023-06-14T07:29:56;28.70;28.20
12060;DHT22;6091;51.432;6.880;2023-06-14T07:32:23;28.80;28.20
12060;DHT22;6091;51.432;6.880;2023-06-14T07:34:50;28.90;28.30
12060;DHT22;6091;51.432;6.880;2023-06-14T07:37:17;28.90;28.20
12060;DHT22;6091;51.432;6.880;2023-06-14T07:39:44;29.00;28.20
12060;DHT22;6091;51.432;6.880;2023-06-14T07:42:11;29.00;28.10
12060;DHT22;6091;51.432;6.880;2023-06-14T07:44:38;29.10;28.70
12060;DHT22;6091;51.432;6.880;2023-06-14T07:47:05;29.10;28.10
12060;DHT22;6091;51.432;6.880;2023-06-14T07:49:33;29.20;28.10
12060;DHT22;6091;51.432;6.880;2023-06-14T07:52:00;29.20;28.00
12060;DHT22;6091;51.432;6.880;2023-06-14T07:54:27;29.20;28.10
12060;DHT22;6091;51.432;6.880;2023-06-14T07:56:54;29.30;28.10
12060;DHT22;6091;51.432;6.880;2023-06-14T07:59:22;29.30;27.90
12060;DHT22;6091;51.432;6.880;2023-06-14T08:01:49;29.40;28.00
12060;DHT22;6091;51.432;6.880;2023-06-14T08:04:16;29.40;27.90
12060;DHT22;6091;51.432;6.880;2023-06-14T08:06:43;29.40;27.90
12060;DHT22;6091;51.432;6.880;2023-06-14T08:09:15;29.40;27.90
12060;DHT22;6091;51.432;6.880;2023-06-14T08:11:42;29.40;27.90
12060;DHT22;6091;51.432;6.880;2023-06-14T08:14:09;29.50;27.90
12060;DHT22;6091;51.432;6.880;2023-06-14T08:16:36;29.50;27.90
12060;DHT22;6091;51.432;6.880;2023-06-14T08:19:04;29.50;27.90
12060;DHT22;6091;51.432;6.880;2023-06-14T08:21:31;29.50;27.80
12060;DHT22;6091;51.432;6.880;2023-06-14T08:24:00;29.50;27.80
12060;DHT22;6091;51.432;6.880;2023-06-14T08:26:28;29.50;27.70
12060;DHT22;6091;51.432;6.880;2023-06-14T08:28:55;29.40;27.90
12060;DHT22;6091;51.432;6.880;2023-06-14T08:31:23;29.40;28.00
12060;DHT22;6091;51.432;6.880;2023-06-14T08:33:52;29.50;27.90
12060;DHT22;6091;51.432;6.880;2023-06-14T08:36:19;29.40;27.80
12060;DHT22;6091;51.432;6.880;2023-06-14T08:38:46;29.40;27.80
12060;DHT22;6091;51.432;6.880;2023-06-14T08:41:21;29.50;27.70
12060;DHT22;6091;51.432;6.880;2023-06-14T08:43:51;29.50;27.60
12060;DHT22;6091;51.432;6.880;2023-06-14T08:46:19;29.60;27.60
12060;DHT22;6091;51.432;6.880;2023-06-14T08:48:49;29.40;27.60
12060;DHT22;6091;51.432;6.880;2023-06-14T08:51:19;29.40;27.70
12060;DHT22;6091;51.432;6.880;2023-06-14T08:53:55;29.40;27.70
12060;DHT22;6091;51.432;6.880;2023-06-14T08:56:26;29.50;27.70
12060;DHT22;6091;51.432;6.880;2023-06-14T08:58:58;29.40;27.90
12060;DHT22;6091;51.432;6.880;2023-06-14T09:01:37;29.50;27.90
12060;DHT22;6091;51.432;6.880;2023-06-14T09:04:12;29.50;27.60
12060;DHT22;6091;51.432;6.880;2023-06-14T09:06:39;29.60;27.70
12060;DHT22;6091;51.432;6.880;2023-06-14T09:09:07;29.50;27.60
12060;DHT22;6091;51.432;6.880;2023-06-14T09:11:35;29.50;27.50
12060;DHT22;6091;51.432;6.880;2023-06-14T09:14:02;29.40;27.50
12060;DHT22;6091;51.432;6.880;2023-06-14T09:16:32;29.40;27.50
12060;DHT22;6091;51.432;6.880;2023-06-14T09:19:00;29.30;27.40
12060;DHT22;6091;51.432;6.880;2023-06-14T09:21:27;29.30;27.50
12060;DHT22;6091;51.432;6.880;2023-06-14T09:23:57;29.30;27.50
12060;DHT22;6091;51.432;6.880;2023-06-14T09:26:27;29.30;27.50
12060;DHT22;6091;51.432;6.880;2023-06-14T09:28:54;29.20;27.50
12060;DHT22;6091;51.432;6.880;2023-06-14T09:31:22;29.20;27.90
12060;DHT22;6091;51.432;6.880;2023-06-14T09:33:49;29.10;27.30
12060;DHT22;6091;51.432;6.880;2023-06-14T09:36:18;29.20;27.40
12060;DHT22;6091;51.432;6.880;2023-06-14T09:39:02;29.10;27.30
12060;DHT22;6091;51.432;6.880;2023-06-14T09:41:35;29.20;27.30
12060;DHT22;6091;51.432;6.880;2023-06-14T09:44:04;29.20;27.30
12060;DHT22;6091;51.432;6.880;2023-06-14T09:46:40;29.10;27.20
12060;DHT22;6091;51.432;6.880;2023-06-14T09:49:08;29.10;27.20
12060;DHT22;6091;51.432;6.880;2023-06-14T09:51:42;29.10;27.10
12060;DHT22;6091;51.432;6.880;2023-06-14T09:54:16;29.20;27.00
12060;DHT22;6091;51.432;6.880;2023-06-14T09:56:47;29.20;27.10
12060;DHT22;6091;51.432;6.880;2023-06-14T09:59:22;29.10;27.10
12060;DHT22;6091;51.432;6.880;2023-06-14T10:01:59;29.10;27.00
12060;DHT22;6091;51.432;6.880;2023-06-14T10:04:34;29.20;27.20
12060;DHT22;6091;51.432;6.880;2023-06-14T10:07:01;29.10;27.10
12060;DHT22;6091;51.432;6.880;2023-06-14T10:09:30;29.20;27.10
12060;DHT22;6091;51.432;6.880;2023-06-14T10:11:59;29.20;27.10
12060;DHT22;6091;51.432;6.880;2023-06-14T10:14:27;29.20;27.10
12060;DHT22;6091;51.432;6.880;2023-06-14T10:17:04;29.20;27.00
12060;DHT22;6091;51.432;6.880;2023-06-14T10:19:56;29.20;27.10
12060;DHT22;6091;51.432;6.880;2023-06-14T10:22:37;29.30;27.10
12060;DHT22;6091;51.432;6.880;2023-06-14T10:25:27;29.30;27.20
12060;DHT22;6091;51.432;6.880;2023-06-14T10:28:16;29.30;27.00
12060;DHT22;6091;51.432;6.880;2023-06-14T10:31:07;29.30;26.80
12060;DHT22;6091;51.432;6.880;2023-06-14T10:39:23;29.30;26.80
12060;DHT22;6091;51.432;6.880;2023-06-14T10:41:53;29.30;26.60
12060;DHT22;6091;51.432;6.880;2023-06-14T10:46:49;29.30;26.80
12060;DHT22;6091;51.432;6.880;2023-06-14T10:49:19;29.30;26.80
12060;DHT22;6091;51.432;6.880;2023-06-14T10:52:03;29.30;26.80
12060;DHT22;6091;51.432;6.880;2023-06-14T10:54:34;29.30;26.70
12060;DHT22;6091;51.432;6.880;2023-06-14T10:57:01;29.30;26.90
12060;DHT22;6091;51.432;6.880;2023-06-14T10:59:28;29.30;26.80
12060;DHT22;6091;51.432;6.880;2023-06-14T11:05:04;29.40;26.90
12060;DHT22;6091;51.432;6.880;2023-06-14T11:10:44;29.40;26.80
12060;DHT22;6091;51.432;6.880;2023-06-14T11:13:16;29.50;26.80
12060;DHT22;6091;51.432;6.880;2023-06-14T11:15:46;29.50;26.70
12060;DHT22;6091;51.432;6.880;2023-06-14T11:18:15;29.50;26.80
12060;DHT22;6091;51.432;6.880;2023-06-14T11:20:46;29.60;26.90
12060;DHT22;6091;51.432;6.880;2023-06-14T11:23:14;29.60;26.80
12060;DHT22;6091;51.432;6.880;2023-06-14T11:25:41;29.70;26.90
12060;DHT22;6091;51.432;6.880;2023-06-14T11:28:09;29.70;26.90
12060;DHT22;6091;51.432;6.880;2023-06-14T11:30:36;29.80;27.20
12060;DHT22;6091;51.432;6.880;2023-06-14T11:33:03;29.90;27.40
12060;DHT22;6091;51.432;6.880;2023-06-14T11:35:30;29.90;27.00
12060;DHT22;6091;51.432;6.880;2023-06-14T11:37:58;30.00;26.90
12060;DHT22;6091;51.432;6.880;2023-06-14T11:40:25;30.10;27.20
12060;DHT22;6091;51.432;6.880;2023-06-14T11:42:59;30.10;27.10
12060;DHT22;6091;51.432;6.880;2023-06-14T11:45:28;30.00;27.00
12060;DHT22;6091;51.432;6.880;2023-06-14T11:47:56;30.30;27.10
12060;DHT22;6091;51.432;6.880;2023-06-14T11:50:26;30.30;26.90
12060;DHT22;6091;51.432;6.880;2023-06-14T11:52:54;30.40;27.30
12060;DHT22;6091;51.432;6.880;2023-06-14T11:55:23;30.50;27.00
12060;DHT22;6091;51.432;6.880;2023-06-14T11:57:53;30.50;26.90
12060;DHT22;6091;51.432;6.880;2023-06-14T12:00:25;30.60;27.00
12060;DHT22;6091;51.432;6.880;2023-06-14T12:02:54;30.60;27.00
12060;DHT22;6091;51.432;6.880;2023-06-14T12:05:24;30.80;27.00
12060;DHT22;6091;51.432;6.880;2023-06-14T12:08:00;30.70;26.90
12060;DHT22;6091;51.432;6.880;2023-06-14T12:10:29;30.90;26.80
12060;DHT22;6091;51.432;6.880;2023-06-14T12:12:58;31.00;27.00
12060;DHT22;6091;51.432;6.880;2023-06-14T12:15:29;31.10;27.00
12060;DHT22;6091;51.432;6.880;2023-06-14T12:17:58;31.20;27.00
12060;DHT22;6091;51.432;6.880;2023-06-14T12:20:30;31.40;27.00
12060;DHT22;6091;51.432;6.880;2023-06-14T12:23:03;31.60;27.00
12060;DHT22;6091;51.432;6.880;2023-06-14T12:25:32;31.80;26.90
12060;DHT22;6091;51.432;6.880;2023-06-14T12:28:06;31.90;27.00
12060;DHT22;6091;51.432;6.880;2023-06-14T12:30:38;32.10;26.70
12060;DHT22;6091;51.432;6.880;2023-06-14T12:33:05;32.30;26.90
12060;DHT22;6091;51.432;6.880;2023-06-14T12:35:34;32.50;26.90
12060;DHT22;6091;51.432;6.880;2023-06-14T12:38:01;32.70;26.90
12060;DHT22;6091;51.432;6.880;2023-06-14T12:40:30;33.00;26.80
12060;DHT22;6091;51.432;6.880;2023-06-14T12:42:57;33.30;26.80
12060;DHT22;6091;51.432;6.880;2023-06-14T12:45:24;33.50;26.70
12060;DHT22;6091;51.432;6.880;2023-06-14T12:47:51;33.70;26.50
12060;DHT22;6091;51.432;6.880;2023-06-14T12:50:18;33.90;26.30
12060;DHT22;6091;51.432;6.880;2023-06-14T12:52:48;34.00;26.20
12060;DHT22;6091;51.432;6.880;2023-06-14T12:55:15;34.20;26.20
12060;DHT22;6091;51.432;6.880;2023-06-14T12:57:43;34.30;26.30
12060;DHT22;6091;51.432;6.880;2023-06-14T13:00:10;34.50;26.20
12060;DHT22;6091;51.432;6.880;2023-06-14T13:02:40;34.70;26.20
12060;DHT22;6091;51.432;6.880;2023-06-14T13:05:07;34.90;26.10
12060;DHT22;6091;51.432;6.880;2023-06-14T13:07:34;35.00;26.10
12060;DHT22;6091;51.432;6.880;2023-06-14T13:10:01;35.10;26.00
12060;DHT22;6091;51.432;6.880;2023-06-14T13:12:29;35.30;25.90
12060;DHT22;6091;51.432;6.880;2023-06-14T13:14:56;35.40;25.80
12060;DHT22;6091;51.432;6.880;2023-06-14T13:17:22;35.50;25.70
12060;DHT22;6091;51.432;6.880;2023-06-14T13:19:49;35.70;25.70
12060;DHT22;6091;51.432;6.880;2023-06-14T13:22:16;35.80;25.60
12060;DHT22;6091;51.432;6.880;2023-06-14T13:24:43;35.90;25.50
12060;DHT22;6091;51.432;6.880;2023-06-14T13:27:11;35.90;25.40
12060;DHT22;6091;51.432;6.880;2023-06-14T13:29:40;35.90;25.20
12060;DHT22;6091;51.432;6.880;2023-06-14T13:32:08;35.90;25.10
12060;DHT22;6091;51.432;6.880;2023-06-14T13:34:35;35.90;25.00
12060;DHT22;6091;51.432;6.880;2023-06-14T13:37:02;35.80;25.00
12060;DHT22;6091;51.432;6.880;2023-06-14T13:39:29;35.70;24.90
12060;DHT22;6091;51.432;6.880;2023-06-14T13:41:56;35.70;24.90
12060;DHT22;6091;51.432;6.880;2023-06-14T13:44:23;35.60;24.80
12060;DHT22;6091;51.432;6.880;2023-06-14T13:46:51;35.50;24.90
12060;DHT22;6091;51.432;6.880;2023-06-14T13:49:18;35.40;24.80
12060;DHT22;6091;51.432;6.880;2023-06-14T13:51:45;35.30;24.80
12060;DHT22;6091;51.432;6.880;2023-06-14T13:54:13;35.10;24.60
12060;DHT22;6091;51.432;6.880;2023-06-14T13:56:41;35.00;24.60
12060;DHT22;6091;51.432;6.880;2023-06-14T13:59:08;34.80;24.40
12060;DHT22;6091;51.432;6.880;2023-06-14T14:01:36;34.60;24.30
12060;DHT22;6091;51.432;6.880;2023-06-14T14:04:03;34.30;24.20
12060;DHT22;6091;51.432;6.880;2023-06-14T14:06:31;34.10;24.30
12060;DHT22;6091;51.432;6.880;2023-06-14T14:08:58;33.80;24.30
12060;DHT22;6091;51.432;6.880;2023-06-14T14:11:25;33.60;24.30
12060;DHT22;6091;51.432;6.880;2023-06-14T14:13:52;33.30;24.30
12060;DHT22;6091;51.432;6.880;2023-06-14T14:16:20;33.00;24.40
12060;DHT22;6091;51.432;6.880;2023-06-14T14:18:47;32.80;24.40
12060;DHT22;6091;51.432;6.880;2023-06-14T14:21:14;32.50;24.50
12060;DHT22;6091;51.432;6.880;2023-06-14T14:23:41;32.30;24.60
12060;DHT22;6091;51.432;6.880;2023-06-14T14:26:08;32.20;24.70
12060;DHT22;6091;51.432;6.880;2023-06-14T14:28:35;32.00;24.80
12060;DHT22;6091;51.432;6.880;2023-06-14T14:31:02;31.90;24.90
12060;DHT22;6091;51.432;6.880;2023-06-14T14:33:29;31.70;24.90
12060;DHT22;6091;51.432;6.880;2023-06-14T14:35:56;31.60;24.90
12060;DHT22;6091;51.432;6.880;2023-06-14T14:38:23;31.60;25.10
12060;DHT22;6091;51.432;6.880;2023-06-14T14:40:50;31.40;25.10
12060;DHT22;6091;51.432;6.880;2023-06-14T14:43:17;31.40;25.20
12060;DHT22;6091;51.432;6.880;2023-06-14T14:45:44;31.30;25.30
12060;DHT22;6091;51.432;6.880;2023-06-14T14:48:11;31.10;25.20
12060;DHT22;6091;51.432;6.880;2023-06-14T14:50:38;31.10;25.30
12060;DHT22;6091;51.432;6.880;2023-06-14T14:53:06;31.00;25.40
12060;DHT22;6091;51.432;6.880;2023-06-14T14:55:33;30.90;25.60
12060;DHT22;6091;51.432;6.880;2023-06-14T14:58:02;30.90;25.60
12060;DHT22;6091;51.432;6.880;2023-06-14T15:00:29;30.80;25.60
12060;DHT22;6091;51.432;6.880;2023-06-14T15:02:56;30.80;25.70
12060;DHT22;6091;51.432;6.880;2023-06-14T15:05:24;30.50;25.60
12060;DHT22;6091;51.432;6.880;2023-06-14T15:07:51;30.70;25.70
12060;DHT22;6091;51.432;6.880;2023-06-14T15:10:18;30.60;25.80
12060;DHT22;6091;51.432;6.880;2023-06-14T15:12:45;30.60;25.80
12060;DHT22;6091;51.432;6.880;2023-06-14T15:15:12;30.60;25.80
12060;DHT22;6091;51.432;6.880;2023-06-14T15:17:39;30.60;25.70
12060;DHT22;6091;51.432;6.880;2023-06-14T15:20:07;30.60;25.80
12060;DHT22;6091;51.432;6.880;2023-06-14T15:22:34;30.60;25.90
12060;DHT22;6091;51.432;6.880;2023-06-14T15:25:01;30.60;26.00
12060;DHT22;6091;51.432;6.880;2023-06-14T15:27:28;30.60;26.00
12060;DHT22;6091;51.432;6.880;2023-06-14T15:29:59;30.70;26.10
12060;DHT22;6091;51.432;6.880;2023-06-14T15:32:28;30.80;26.20
12060;DHT22;6091;51.432;6.880;2023-06-14T15:34:55;30.90;26.30
12060;DHT22;6091;51.432;6.880;2023-06-14T15:37:22;31.00;26.30
12060;DHT22;6091;51.432;6.880;2023-06-14T15:39:49;31.10;26.30
12060;DHT22;6091;51.432;6.880;2023-06-14T15:42:16;31.30;26.40
12060;DHT22;6091;51.432;6.880;2023-06-14T15:44:43;31.50;26.40
12060;DHT22;6091;51.432;6.880;2023-06-14T15:47:10;31.60;26.40
12060;DHT22;6091;51.432;6.880;2023-06-14T15:49:37;31.70;26.40
12060;DHT22;6091;51.432;6.880;2023-06-14T15:52:04;31.80;26.30
12060;DHT22;6091;51.432;6.880;2023-06-14T15:54:32;32.00;26.30
12060;DHT22;6091;51.432;6.880;2023-06-14T15:56:59;32.00;26.20
12060;DHT22;6091;51.432;6.880;2023-06-14T15:59:26;32.10;26.20
12060;DHT22;6091;51.432;6.880;2023-06-14T16:01:54;32.20;26.20
12060;DHT22;6091;51.432;6.880;2023-06-14T16:04:21;32.20;26.10
12060;DHT22;6091;51.432;6.880;2023-06-14T16:06:49;32.20;26.10
12060;DHT22;6091;51.432;6.880;2023-06-14T16:09:16;32.10;26.00
12060;DHT22;6091;51.432;6.880;2023-06-14T16:12:00;32.10;25.90
12060;DHT22;6091;51.432;6.880;2023-06-14T16:14:28;32.10;25.90